createdAt,value
2022-12-05T00:00:54.565Z,23.80
2022-12-05T00:03:22.185Z,23.77
2022-12-05T00:05:49.030Z,22.92
2022-12-05T00:08:15.610Z,24.45
2022-12-05T00:10:42.696Z,23.77
2022-12-05T00:13:10.182Z,23.15
2022-12-05T00:15:38.640Z,23.70
2022-12-05T00:18:05.788Z,23.23
2022-12-05T00:20:32.654Z,23.85
2022-12-05T00:22:59.684Z,23.63
2022-12-05T00:25:26.252Z,23.60
2022-12-05T00:27:52.767Z,22.95
2022-12-05T00:30:19.390Z,22.80
2022-12-05T00:32:45.956Z,22.58
2022-12-05T00:35:12.513Z,22.98
2022-12-05T00:37:39.034Z,23.15
2022-12-05T00:40:06.540Z,23.55
2022-12-05T00:42:33.092Z,23.08
2022-12-05T00:44:59.629Z,23.38
2022-12-05T00:47:26.273Z,23.50
2022-12-05T00:49:52.799Z,22.70
2022-12-05T00:52:19.324Z,24.17
2022-12-05T00:54:45.871Z,23.35
2022-12-05T00:57:12.550Z,24.02
2022-12-05T00:59:40.355Z,24.90
2022-12-05T01:02:06.917Z,22.17
2022-12-05T01:04:33.411Z,22.75
2022-12-05T01:07:00.031Z,23.58
2022-12-05T01:09:26.985Z,23.42
2022-12-05T01:11:53.874Z,23.00
2022-12-05T01:14:22.661Z,21.60
2022-12-05T01:16:50.807Z,22.00
2022-12-05T01:19:26.655Z,22.05
2022-12-05T01:21:54.041Z,22.15
2022-12-05T01:24:21.774Z,23.08
2022-12-05T01:26:48.980Z,22.25
2022-12-05T01:29:19.559Z,22.63
2022-12-05T01:34:15.269Z,22.23
2022-12-05T01:36:42.351Z,21.15
2022-12-05T01:39:10.808Z,21.77
2022-12-05T01:41:42.274Z,21.80
2022-12-05T01:44:28.673Z,22.15
2022-12-05T01:46:56.066Z,22.20
2022-12-05T01:49:32.991Z,22.73
2022-12-05T01:52:07.649Z,23.27
2022-12-05T01:54:37.062Z,23.30
2022-12-05T01:57:08.393Z,22.77
2022-12-05T01:59:38.725Z,21.13
2022-12-05T02:02:06.316Z,21.75
2022-12-05T02:04:38.486Z,21.13
2022-12-05T02:07:05.065Z,23.15
2022-12-05T02:09:31.657Z,22.75
2022-12-05T02:12:00.979Z,23.15
2022-12-05T02:14:46.739Z,24.23
2022-12-05T02:17:22.163Z,22.90
2022-12-05T02:20:15.019Z,23.42
2022-12-05T02:22:50.356Z,23.85
2022-12-05T02:25:38.555Z,24.42
2022-12-05T02:28:20.219Z,24.02
2022-12-05T02:30:56.536Z,23.33
2022-12-05T02:33:44.449Z,24.30
2022-12-05T02:36:23.884Z,23.30
2022-12-05T02:39:00.455Z,24.33
2022-12-05T02:41:38.405Z,24.25
2022-12-05T02:44:16.137Z,25.60
2022-12-05T02:46:46.330Z,24.85
2022-12-05T02:49:20.022Z,24.05
2022-12-05T02:51:51.475Z,23.48
2022-12-05T02:54:24.602Z,24.50
2022-12-05T02:56:53.179Z,23.38
2022-12-05T02:59:23.269Z,23.73
2022-12-05T03:01:51.202Z,24.27
2022-12-05T03:04:21.014Z,24.88
2022-12-05T03:07:04.848Z,23.63
2022-12-05T03:09:54.204Z,24.52
2022-12-05T03:12:31.058Z,23.42
2022-12-05T03:15:06.430Z,23.20
2022-12-05T03:17:40.890Z,23.45
2022-12-05T03:20:20.322Z,22.60
2022-12-05T03:22:54.329Z,23.83
2022-12-05T03:25:25.598Z,23.63
2022-12-05T03:28:21.955Z,24.25
2022-12-05T03:30:53.001Z,23.38
2022-12-05T03:33:35.337Z,24.17
2022-12-05T03:36:10.637Z,23.67
2022-12-05T03:38:47.630Z,23.33
2022-12-05T03:41:32.374Z,23.45
2022-12-05T03:44:05.801Z,24.33
2022-12-05T03:46:43.970Z,23.90
2022-12-05T03:49:34.096Z,24.25
2022-12-05T03:52:12.862Z,23.83
2022-12-05T03:54:45.437Z,24.48
2022-12-05T03:57:17.119Z,23.08
2022-12-05T04:00:10.989Z,23.83
2022-12-05T04:02:56.095Z,24.38
2022-12-05T04:05:31.608Z,24.35
2022-12-05T04:08:14.842Z,25.15
2022-12-05T04:10:49.121Z,25.55
2022-12-05T04:13:26.974Z,26.15
2022-12-05T04:16:24.606Z,25.50
2022-12-05T04:18:59.904Z,24.98
2022-12-05T04:21:39.717Z,25.17
2022-12-05T04:24:32.546Z,25.87
2022-12-05T04:27:21.204Z,25.25
2022-12-05T04:30:00.245Z,26.40
2022-12-05T04:32:39.009Z,26.88
2022-12-05T04:35:13.016Z,25.90
2022-12-05T04:37:45.094Z,27.13
2022-12-05T04:40:48.829Z,26.35
2022-12-05T04:43:18.761Z,26.38
2022-12-05T04:45:45.947Z,25.45
2022-12-05T04:48:16.167Z,24.45
2022-12-05T04:50:45.230Z,25.10
2022-12-05T04:53:12.797Z,25.45
2022-12-05T04:55:43.660Z,24.67
2022-12-05T04:58:19.087Z,22.70
2022-12-05T05:00:58.118Z,23.65
2022-12-05T05:03:34.372Z,25.33
2022-12-05T05:06:01.479Z,24.30
2022-12-05T05:08:29.218Z,25.13
2022-12-05T05:11:10.572Z,26.40
2022-12-05T05:13:37.136Z,26.48
2022-12-05T05:16:04.211Z,25.75
2022-12-05T05:18:31.097Z,26.45
2022-12-05T05:20:57.629Z,26.17
2022-12-05T05:23:25.472Z,25.83
2022-12-05T05:25:56.234Z,26.25
2022-12-05T05:28:23.742Z,26.48
2022-12-05T05:30:50.384Z,24.67
2022-12-05T05:33:17.033Z,24.67
2022-12-05T05:35:43.614Z,25.90
2022-12-05T05:38:10.254Z,26.45
2022-12-05T05:40:37.536Z,25.65
2022-12-05T05:43:04.290Z,26.13
2022-12-05T05:45:30.902Z,25.42
2022-12-05T05:47:57.499Z,26.23
2022-12-05T05:50:24.054Z,25.92
2022-12-05T05:52:50.597Z,26.70
2022-12-05T05:55:17.174Z,25.90
2022-12-05T05:57:43.759Z,26.63
2022-12-05T06:00:10.674Z,26.05
2022-12-05T06:02:37.730Z,25.50
2022-12-05T06:05:05.008Z,25.52
2022-12-05T06:07:31.663Z,24.58
2022-12-05T06:09:58.498Z,25.65
2022-12-05T06:12:25.298Z,26.60
2022-12-05T06:14:52.637Z,27.50
2022-12-05T06:17:19.183Z,25.83
2022-12-05T06:19:46.032Z,26.77
2022-12-05T06:22:12.674Z,26.15
2022-12-05T06:24:39.312Z,27.15
2022-12-05T06:27:05.992Z,26.35
2022-12-05T06:29:34.149Z,26.15
2022-12-05T06:32:01.463Z,27.13
2022-12-05T06:34:28.374Z,24.98
2022-12-05T06:36:55.049Z,27.00
2022-12-05T06:39:21.674Z,26.77
2022-12-05T06:41:48.173Z,27.20
2022-12-05T06:44:14.728Z,25.83
2022-12-05T06:46:41.352Z,26.13
2022-12-05T06:49:10.035Z,26.42
2022-12-05T06:51:36.708Z,27.92
2022-12-05T06:54:03.276Z,28.35
2022-12-05T06:56:29.805Z,28.42
2022-12-05T06:58:56.399Z,27.95
2022-12-05T07:01:40.994Z,27.17
2022-12-05T07:04:13.517Z,28.08
2022-12-05T07:06:40.777Z,28.33
2022-12-05T07:09:07.877Z,28.27
2022-12-05T07:11:35.230Z,27.58
2022-12-05T07:14:10.192Z,26.80
2022-12-05T07:16:43.845Z,27.17
2022-12-05T07:19:11.333Z,26.58
2022-12-05T07:21:37.876Z,26.83
2022-12-05T07:24:04.688Z,27.25
2022-12-05T07:26:31.267Z,27.70
2022-12-05T07:28:58.083Z,26.15
2022-12-05T07:31:26.032Z,27.23
2022-12-05T07:33:52.687Z,26.17
2022-12-05T07:36:22.392Z,38.85
2022-12-05T07:38:48.887Z,24.80
2022-12-05T07:41:22.736Z,24.08
2022-12-05T07:43:51.268Z,24.98
2022-12-05T07:46:18.614Z,23.30
2022-12-05T07:48:45.988Z,22.38
2022-12-05T07:51:12.561Z,22.92
2022-12-05T07:53:39.799Z,22.90
2022-12-05T07:56:08.323Z,23.15
2022-12-05T07:58:35.811Z,23.60
2022-12-05T08:01:11.669Z,24.48
2022-12-05T08:03:38.579Z,23.15
2022-12-05T08:06:10.814Z,25.17
2022-12-05T08:08:37.760Z,27.63
2022-12-05T08:11:12.335Z,27.75
2022-12-05T08:13:39.161Z,31.92
2022-12-05T08:16:09.452Z,29.52
2022-12-05T08:18:36.745Z,26.45
2022-12-05T08:21:04.741Z,24.98
2022-12-05T08:23:32.409Z,25.67
2022-12-05T08:26:08.209Z,25.60
2022-12-05T08:28:35.560Z,25.92
2022-12-05T08:31:11.482Z,24.27
2022-12-05T08:33:38.155Z,24.90
2022-12-05T08:36:07.266Z,23.80
2022-12-05T08:38:34.712Z,25.52
2022-12-05T08:41:07.707Z,24.00
2022-12-05T08:43:34.641Z,23.85
2022-12-05T08:46:02.234Z,22.13
2022-12-05T08:48:30.982Z,22.92
2022-12-05T08:50:57.526Z,24.40
2022-12-05T08:53:24.201Z,24.90
2022-12-05T08:55:50.856Z,23.65
2022-12-05T08:58:17.362Z,24.45
2022-12-05T09:00:43.966Z,22.90
2022-12-05T09:03:11.927Z,24.08
2022-12-05T09:05:38.669Z,23.05
2022-12-05T09:08:05.369Z,23.58
2022-12-05T09:10:33.002Z,23.02
2022-12-05T09:12:59.601Z,22.73
2022-12-05T09:15:26.190Z,23.70
2022-12-05T09:17:52.903Z,23.67
2022-12-05T09:20:19.622Z,23.88
2022-12-05T09:22:46.129Z,24.55
2022-12-05T09:25:12.645Z,24.65
2022-12-05T09:27:39.210Z,24.63
2022-12-05T09:30:09.278Z,26.10
2022-12-05T09:32:35.807Z,25.85
2022-12-05T09:35:02.596Z,24.38
2022-12-05T09:37:42.909Z,26.48
2022-12-05T09:40:17.074Z,25.35
2022-12-05T09:43:06.853Z,24.95
2022-12-05T09:45:43.987Z,24.10
2022-12-05T09:48:21.678Z,25.23
2022-12-05T09:51:01.090Z,26.52
2022-12-05T09:53:30.902Z,25.15
2022-12-05T09:56:12.504Z,25.23
2022-12-05T09:58:46.329Z,26.67
2022-12-05T10:01:51.538Z,26.77
2022-12-05T10:05:00.667Z,28.25
2022-12-05T10:08:08.757Z,26.70
2022-12-05T10:10:57.315Z,26.50
2022-12-05T10:14:12.048Z,27.48
2022-12-05T10:16:51.762Z,26.30
2022-12-05T10:19:27.599Z,26.43
2022-12-05T10:22:20.304Z,26.80
2022-12-05T10:24:54.712Z,25.80
2022-12-05T10:27:38.205Z,24.98
2022-12-05T10:30:14.806Z,25.45
2022-12-05T10:32:53.564Z,23.70
2022-12-05T10:35:38.852Z,24.25
2022-12-05T10:38:11.170Z,23.67
2022-12-05T10:40:43.058Z,25.27
2022-12-05T10:43:14.518Z,23.95
2022-12-05T10:45:46.568Z,24.98
2022-12-05T10:48:16.672Z,25.55
2022-12-05T10:50:48.665Z,24.25
2022-12-05T10:53:38.352Z,22.92
2022-12-05T10:56:43.651Z,23.73
2022-12-05T10:59:22.243Z,20.10
2022-12-05T11:01:53.780Z,21.85
2022-12-05T11:04:30.743Z,23.63
2022-12-05T11:07:05.539Z,23.23
2022-12-05T11:09:36.569Z,21.52
2022-12-05T11:12:17.186Z,22.67
2022-12-05T11:15:21.861Z,24.02
2022-12-05T11:17:50.156Z,22.60
2022-12-05T11:20:19.724Z,22.38
2022-12-05T11:22:56.602Z,24.90
2022-12-05T11:25:35.644Z,24.30
2022-12-05T11:28:17.664Z,21.52
2022-12-05T11:31:20.950Z,20.75
2022-12-05T11:34:20.084Z,20.10
2022-12-05T11:37:00.102Z,17.90
2022-12-05T11:39:26.692Z,18.75
2022-12-05T11:41:56.260Z,18.83
2022-12-05T11:44:34.914Z,18.65
2022-12-05T11:47:23.235Z,20.33
2022-12-05T11:50:01.917Z,18.98
2022-12-05T11:53:04.378Z,23.77
2022-12-05T11:55:39.715Z,21.15
2022-12-05T11:58:31.153Z,20.65
2022-12-05T12:01:03.788Z,20.48
2022-12-05T12:03:40.268Z,21.45
2022-12-05T12:06:37.603Z,20.92
2022-12-05T12:09:42.157Z,20.92
2022-12-05T12:12:35.841Z,20.83
2022-12-05T12:15:21.172Z,19.90
2022-12-05T12:18:04.502Z,18.90
2022-12-05T12:20:57.449Z,18.98
2022-12-05T12:23:52.482Z,18.63
2022-12-05T12:26:27.046Z,17.63
2022-12-05T12:29:16.021Z,17.52
2022-12-05T12:31:54.498Z,16.25
2022-12-05T12:34:56.590Z,16.25
2022-12-05T12:37:58.213Z,16.83
2022-12-05T12:40:39.330Z,17.27
2022-12-05T12:43:54.960Z,15.25
2022-12-05T12:46:38.178Z,16.40
2022-12-05T12:49:41.834Z,17.05
2022-12-05T12:52:15.102Z,17.70
2022-12-05T12:55:09.123Z,17.30
2022-12-05T12:57:56.656Z,17.02
2022-12-05T13:00:31.993Z,18.23
2022-12-05T13:03:17.610Z,17.45
2022-12-05T13:06:28.364Z,17.17
2022-12-05T13:09:02.423Z,17.02
2022-12-05T13:11:35.148Z,16.85
2022-12-05T13:14:02.298Z,16.48
2022-12-05T13:16:34.187Z,17.35
2022-12-05T13:19:01.672Z,17.70
2022-12-05T13:21:28.812Z,17.05
2022-12-05T13:24:03.260Z,18.23
2022-12-05T13:26:36.571Z,16.88
2022-12-05T13:29:04.624Z,17.65
2022-12-05T13:31:35.337Z,18.02
2022-12-05T13:34:02.047Z,17.70
2022-12-05T13:36:47.533Z,18.50
2022-12-05T13:39:32.471Z,18.92
2022-12-05T13:42:15.390Z,19.10
2022-12-05T13:45:05.157Z,18.00
2022-12-05T13:47:52.112Z,18.48
2022-12-05T13:50:52.084Z,17.80
2022-12-05T13:53:42.348Z,18.93
2022-12-05T13:56:14.757Z,17.83
2022-12-05T13:58:42.888Z,24.80
2022-12-05T14:01:27.771Z,18.75
2022-12-05T14:04:00.769Z,19.40
2022-12-05T14:06:50.603Z,19.73
2022-12-05T14:09:17.035Z,20.70
2022-12-05T14:12:12.272Z,20.58
2022-12-05T14:14:57.137Z,24.75
2022-12-05T14:17:32.233Z,24.75
2022-12-05T14:20:10.815Z,24.50
2022-12-05T14:22:52.446Z,23.45
2022-12-05T14:25:51.656Z,22.27
2022-12-05T14:28:28.200Z,21.02
2022-12-05T14:31:23.832Z,21.25
2022-12-05T14:34:05.621Z,21.13
2022-12-05T14:36:33.806Z,20.30
2022-12-05T14:39:00.399Z,21.02
2022-12-05T14:41:34.686Z,21.50
2022-12-05T14:44:08.440Z,19.48
2022-12-05T14:46:35.568Z,20.50
2022-12-05T14:49:51.692Z,20.77
2022-12-05T14:52:23.226Z,20.13
2022-12-05T14:54:53.985Z,19.95
2022-12-05T14:57:21.253Z,18.98
2022-12-05T15:00:01.498Z,18.60
2022-12-05T15:02:39.565Z,18.08
2022-12-05T15:05:21.267Z,19.50
2022-12-05T15:07:48.496Z,17.65
2022-12-05T15:10:25.568Z,19.15
2022-12-05T15:12:58.664Z,20.15
2022-12-05T15:15:40.063Z,18.88
2022-12-05T15:18:24.717Z,18.30
2022-12-05T15:20:58.413Z,18.85
2022-12-05T15:24:12.282Z,19.30
2022-12-05T15:26:48.923Z,18.58
2022-12-05T15:29:28.010Z,19.35
2022-12-05T15:32:03.756Z,18.85
2022-12-05T15:34:48.175Z,17.70
2022-12-05T15:37:17.283Z,19.10
2022-12-05T15:40:00.552Z,18.13
2022-12-05T15:42:41.464Z,19.90
2022-12-05T15:45:14.101Z,19.80
2022-12-05T15:47:45.588Z,18.90
2022-12-05T15:50:33.133Z,19.05
2022-12-05T15:53:29.732Z,19.75
2022-12-05T15:56:04.728Z,18.83
2022-12-05T15:58:41.676Z,18.85
2022-12-05T16:01:20.111Z,19.08
2022-12-05T16:03:52.338Z,25.25
2022-12-05T16:07:02.998Z,18.10
2022-12-05T16:09:33.340Z,18.42
2022-12-05T16:12:39.357Z,18.98
2022-12-05T16:15:20.354Z,18.95
2022-12-05T16:17:52.336Z,19.63
2022-12-05T16:20:18.985Z,18.60
2022-12-05T16:22:51.916Z,19.08
2022-12-05T16:25:24.187Z,19.90
2022-12-05T16:27:59.135Z,21.15
2022-12-05T16:30:26.638Z,19.75
2022-12-05T16:33:11.627Z,22.63
2022-12-05T16:35:50.194Z,21.42
2022-12-05T16:38:16.696Z,22.55
2022-12-05T16:40:45.830Z,23.25
2022-12-05T16:43:35.931Z,23.60
2022-12-05T16:46:13.058Z,24.10
2022-12-05T16:48:44.719Z,25.10
2022-12-05T16:51:11.204Z,24.83
2022-12-05T16:53:39.354Z,26.20
2022-12-05T16:56:07.613Z,25.05
2022-12-05T16:58:35.700Z,26.55
2022-12-05T17:01:07.031Z,25.70
2022-12-05T17:03:35.853Z,27.35
2022-12-05T17:06:03.590Z,26.65
2022-12-05T17:08:30.156Z,25.48
2022-12-05T17:10:57.939Z,27.67
2022-12-05T17:13:24.666Z,26.02
2022-12-05T17:15:51.277Z,26.23
2022-12-05T17:18:20.744Z,25.67
2022-12-05T17:20:53.278Z,27.20
2022-12-05T17:23:19.820Z,27.85
2022-12-05T17:25:50.317Z,30.02
2022-12-05T17:28:16.895Z,26.52
2022-12-05T17:30:43.413Z,26.67
2022-12-05T17:33:11.795Z,26.05
2022-12-05T17:35:38.865Z,26.67
2022-12-05T17:38:05.546Z,24.95
2022-12-05T17:40:33.098Z,26.92
2022-12-05T17:43:00.310Z,25.02
2022-12-05T17:45:26.843Z,25.83
2022-12-05T17:47:53.477Z,25.60
2022-12-05T17:50:22.599Z,25.60
2022-12-05T17:52:50.408Z,25.08
2022-12-05T17:55:20.531Z,23.77
2022-12-05T17:57:47.568Z,24.08
2022-12-05T18:00:16.471Z,23.60
2022-12-05T18:02:45.063Z,22.65
2022-12-05T18:05:13.529Z,23.85
2022-12-05T18:07:41.641Z,25.00
2022-12-05T18:12:57.041Z,24.13
2022-12-05T18:15:23.580Z,21.17
2022-12-05T18:17:53.371Z,19.70
2022-12-05T18:20:20.043Z,21.80
2022-12-05T18:22:46.592Z,20.60
2022-12-05T18:25:13.096Z,19.20
2022-12-05T18:27:39.654Z,18.00
2022-12-05T18:30:08.198Z,18.48
2022-12-05T18:32:34.798Z,19.70
2022-12-05T18:35:04.689Z,17.85
2022-12-05T18:37:40.869Z,18.40
2022-12-05T18:40:09.577Z,18.20
2022-12-05T18:42:36.675Z,16.63
2022-12-05T18:45:03.974Z,15.63
2022-12-05T18:47:32.675Z,14.82
2022-12-05T18:50:00.513Z,14.85
2022-12-05T18:52:27.008Z,15.00
2022-12-05T18:55:09.179Z,14.80
2022-12-05T18:57:40.063Z,12.85
2022-12-05T19:00:07.453Z,13.55
2022-12-05T19:02:35.252Z,13.88
2022-12-05T19:05:01.960Z,13.73
2022-12-05T19:07:28.495Z,12.65
2022-12-05T19:09:55.046Z,12.52
2022-12-05T19:12:21.690Z,13.20
2022-12-05T19:14:48.251Z,11.98
2022-12-05T19:17:14.826Z,11.40
2022-12-05T19:19:41.390Z,10.90
2022-12-05T19:22:07.886Z,10.98
2022-12-05T19:24:34.468Z,10.00
2022-12-05T19:27:00.961Z,10.50
2022-12-05T19:29:27.518Z,10.13
2022-12-05T19:31:54.120Z,9.60
2022-12-05T19:34:20.750Z,10.57
2022-12-05T19:36:47.299Z,9.77
2022-12-05T19:39:17.367Z,9.73
2022-12-05T19:41:44.625Z,9.07
2022-12-05T19:44:11.526Z,9.75
2022-12-05T19:46:38.554Z,12.50
2022-12-05T19:49:10.925Z,9.50
2022-12-05T19:51:37.846Z,8.43
2022-12-05T19:54:05.799Z,8.48
2022-12-05T19:56:34.580Z,8.93
2022-12-05T19:59:01.578Z,8.65
2022-12-05T20:01:33.826Z,8.50
2022-12-05T20:04:09.407Z,8.15
2022-12-05T20:06:38.522Z,7.65
2022-12-05T20:09:06.515Z,8.20
2022-12-05T20:11:33.032Z,8.20
2022-12-05T20:14:01.415Z,7.78
2022-12-05T20:16:29.494Z,7.18
2022-12-05T20:18:59.014Z,7.65
2022-12-05T20:21:27.709Z,7.68
2022-12-05T20:23:54.614Z,7.32
2022-12-05T20:26:28.599Z,7.25
2022-12-05T20:28:58.460Z,8.60
2022-12-05T20:31:30.384Z,7.88
2022-12-05T20:33:57.269Z,7.95
2022-12-05T20:36:30.439Z,8.10
2022-12-05T20:39:02.568Z,8.70
2022-12-05T20:41:29.743Z,8.75
2022-12-05T20:44:02.397Z,8.80
2022-12-05T20:46:29.967Z,8.13
2022-12-05T20:48:56.682Z,8.63
2022-12-05T20:51:26.430Z,8.25
2022-12-05T20:53:53.105Z,7.70
2022-12-05T20:56:22.808Z,8.43
2022-12-05T20:58:50.948Z,8.17
2022-12-05T21:01:20.194Z,8.30
2022-12-05T21:03:49.778Z,7.95
2022-12-05T21:06:19.845Z,8.45
2022-12-05T21:08:46.419Z,8.43
2022-12-05T21:11:13.281Z,8.27
2022-12-05T21:13:40.348Z,7.53
2022-12-05T21:16:11.872Z,7.80
2022-12-05T21:18:39.869Z,7.75
2022-12-05T21:21:11.091Z,7.88
2022-12-05T21:23:37.580Z,8.25
2022-12-05T21:26:06.741Z,8.48
2022-12-05T21:28:34.482Z,8.60
2022-12-05T21:31:22.413Z,8.48
2022-12-05T21:33:54.300Z,8.18
2022-12-05T21:36:21.871Z,8.43
2022-12-05T21:38:52.420Z,8.10
2022-12-05T21:41:22.707Z,8.40
2022-12-05T21:43:54.112Z,8.68
2022-12-05T21:46:22.248Z,8.23
2022-12-05T21:48:48.867Z,7.78
2022-12-05T21:51:15.585Z,7.38
2022-12-05T21:53:42.167Z,7.28
2022-12-05T21:56:15.589Z,8.10
2022-12-05T21:58:43.464Z,8.27
2022-12-05T22:01:19.279Z,7.95
2022-12-05T22:03:46.267Z,7.30
2022-12-05T22:06:15.404Z,8.00
2022-12-05T22:08:42.616Z,8.07
2022-12-05T22:11:11.887Z,9.05
2022-12-05T22:13:38.979Z,8.75
2022-12-05T22:16:06.903Z,11.50
2022-12-05T22:18:34.672Z,12.00
2022-12-05T22:21:13.326Z,12.38
2022-12-05T22:23:40.113Z,11.93
2022-12-05T22:26:08.545Z,11.43
2022-12-05T22:28:36.247Z,11.18
2022-12-05T22:31:05.993Z,10.48
2022-12-05T22:33:35.424Z,9.97
2022-12-05T22:36:03.348Z,10.13
2022-12-05T22:38:34.927Z,9.65
2022-12-05T22:41:04.856Z,10.23
2022-12-05T22:43:33.285Z,10.57
2022-12-05T22:46:12.281Z,10.57
2022-12-05T22:48:38.944Z,10.13
2022-12-05T22:51:07.050Z,10.55
2022-12-05T22:53:34.559Z,10.45
2022-12-05T22:56:06.544Z,10.65
2022-12-05T22:58:34.153Z,11.20
2022-12-05T23:01:10.866Z,10.48
2022-12-05T23:03:37.510Z,11.30
2022-12-05T23:06:11.180Z,10.27
2022-12-05T23:08:38.867Z,10.20
2022-12-05T23:11:06.879Z,13.27
2022-12-05T23:13:35.257Z,10.65
2022-12-05T23:16:22.465Z,10.77
2022-12-05T23:18:55.868Z,11.02
2022-12-05T23:21:29.527Z,10.80
2022-12-05T23:23:59.729Z,10.23
2022-12-05T23:26:30.686Z,10.55
2022-12-05T23:28:57.273Z,10.25
2022-12-05T23:31:23.948Z,9.73
2022-12-05T23:33:51.604Z,10.43
2022-12-05T23:36:19.529Z,10.32
2022-12-05T23:38:46.896Z,10.02
2022-12-05T23:41:17.953Z,10.38
2022-12-05T23:43:45.443Z,10.43
2022-12-05T23:46:13.587Z,9.85
2022-12-05T23:48:40.357Z,9.77
2022-12-05T23:51:10.819Z,9.55
2022-12-05T23:53:39.689Z,9.65
2022-12-05T23:56:16.131Z,8.63
2022-12-05T23:58:43.789Z,8.60
